createdAt,value
2022-12-19T00:01:37.883Z,83.40
2022-12-19T00:04:09.177Z,83.50
2022-12-19T00:06:37.961Z,83.60
2022-12-19T00:09:09.995Z,83.40
2022-12-19T00:11:36.692Z,83.40
2022-12-19T00:14:03.271Z,83.40
2022-12-19T00:16:30.481Z,83.50
2022-12-19T00:18:59.706Z,83.50
2022-12-19T00:21:35.029Z,83.70
2022-12-19T00:24:03.547Z,83.70
2022-12-19T00:26:35.698Z,83.60
2022-12-19T00:29:13.858Z,83.90
2022-12-19T00:31:41.071Z,83.80
2022-12-19T00:34:08.854Z,83.80
2022-12-19T00:36:35.742Z,83.90
2022-12-19T00:39:05.684Z,83.80
2022-12-19T00:41:37.502Z,83.90
2022-12-19T00:44:12.058Z,83.90
2022-12-19T00:46:38.764Z,84.00
2022-12-19T00:49:06.058Z,84.80
2022-12-19T00:51:35.118Z,83.90
2022-12-19T00:54:03.069Z,84.30
2022-12-19T00:56:34.480Z,85.20
2022-12-19T00:59:05.002Z,84.50
2022-12-19T01:01:34.955Z,84.50
2022-12-19T01:06:49.843Z,84.60
2022-12-19T01:09:16.862Z,84.80
2022-12-19T01:12:02.291Z,84.70
2022-12-19T01:14:28.855Z,84.60
2022-12-19T01:16:55.459Z,84.70
2022-12-19T01:19:22.027Z,84.90
2022-12-19T01:21:48.710Z,85.00
2022-12-19T01:24:19.028Z,85.00
2022-12-19T01:26:46.132Z,85.00
2022-12-19T01:29:12.884Z,85.20
2022-12-19T01:31:39.690Z,85.30
2022-12-19T01:34:06.393Z,85.30
2022-12-19T01:36:34.597Z,85.40
2022-12-19T01:39:02.882Z,85.50
2022-12-19T01:41:29.507Z,85.30
2022-12-19T01:44:02.024Z,85.50
2022-12-19T01:46:47.774Z,85.70
2022-12-19T01:49:36.035Z,85.80
2022-12-19T01:52:07.210Z,85.70
2022-12-19T01:54:40.549Z,85.60
2022-12-19T01:57:13.597Z,85.70
2022-12-19T01:59:51.530Z,85.60
2022-12-19T02:02:25.320Z,85.60
2022-12-19T02:04:51.927Z,85.70
2022-12-19T02:07:22.047Z,85.70
2022-12-19T02:09:56.799Z,85.90
2022-12-19T02:12:31.064Z,85.90
2022-12-19T02:15:02.510Z,85.90
2022-12-19T02:17:59.845Z,86.00
2022-12-19T02:20:44.600Z,86.10
2022-12-19T02:23:47.983Z,86.40
2022-12-19T02:26:43.990Z,86.70
2022-12-19T02:29:47.838Z,86.70
2022-12-19T02:32:36.233Z,86.60
2022-12-19T02:35:18.250Z,86.80
2022-12-19T02:38:21.172Z,86.80
2022-12-19T02:41:04.231Z,87.50
2022-12-19T02:43:33.755Z,87.20
2022-12-19T02:46:02.735Z,87.20
2022-12-19T02:48:30.027Z,87.50
2022-12-19T02:50:56.660Z,87.60
2022-12-19T02:53:23.946Z,87.20
2022-12-19T02:55:59.707Z,87.40
2022-12-19T02:58:31.771Z,87.10
2022-12-19T03:01:35.084Z,87.10
2022-12-19T03:04:39.054Z,87.00
2022-12-19T03:07:20.566Z,87.10
2022-12-19T03:10:01.011Z,87.00
2022-12-19T03:12:45.549Z,87.20
2022-12-19T03:15:13.181Z,87.20
2022-12-19T03:17:40.136Z,87.20
2022-12-19T03:20:35.762Z,87.40
2022-12-19T03:23:02.473Z,87.20
2022-12-19T03:25:30.478Z,87.30
2022-12-19T03:28:01.590Z,87.40
2022-12-19T03:30:31.295Z,87.60
2022-12-19T03:32:58.239Z,87.80
2022-12-19T03:35:28.971Z,87.90
2022-12-19T03:38:01.906Z,87.70
2022-12-19T03:40:30.502Z,87.50
2022-12-19T03:43:11.673Z,87.50
2022-12-19T03:45:47.613Z,87.80
2022-12-19T03:48:32.984Z,88.00
2022-12-19T03:51:18.445Z,88.00
2022-12-19T03:53:55.958Z,87.90
2022-12-19T03:56:45.163Z,88.00
2022-12-19T03:59:31.869Z,88.10
2022-12-19T04:01:59.240Z,88.00
2022-12-19T04:04:28.069Z,88.20
2022-12-19T04:06:56.246Z,88.20
2022-12-19T04:09:24.124Z,88.20
2022-12-19T04:11:55.888Z,88.50
2022-12-19T04:14:29.892Z,88.30
2022-12-19T04:17:30.449Z,88.10
2022-12-19T04:20:10.710Z,88.30
2022-12-19T04:23:01.330Z,88.20
2022-12-19T04:25:33.789Z,88.60
2022-12-19T04:28:25.898Z,88.30
2022-12-19T04:30:53.920Z,88.50
2022-12-19T04:33:20.770Z,88.50
2022-12-19T04:35:47.407Z,88.30
2022-12-19T04:38:14.070Z,88.30
2022-12-19T04:40:41.753Z,88.40
2022-12-19T04:43:09.181Z,88.60
2022-12-19T04:45:36.138Z,88.60
2022-12-19T04:48:03.410Z,88.80
2022-12-19T04:50:29.971Z,88.70
2022-12-19T04:52:57.281Z,88.80
2022-12-19T04:55:23.999Z,88.70
2022-12-19T04:57:50.649Z,88.90
2022-12-19T05:00:17.380Z,89.00
2022-12-19T05:02:44.596Z,89.00
2022-12-19T05:05:11.572Z,89.00
2022-12-19T05:07:38.171Z,89.00
2022-12-19T05:10:05.529Z,88.90
2022-12-19T05:12:32.200Z,88.90
2022-12-19T05:14:58.856Z,89.00
2022-12-19T05:17:25.528Z,89.10
2022-12-19T05:19:52.115Z,89.40
2022-12-19T05:22:18.856Z,89.30
2022-12-19T05:24:45.485Z,89.20
2022-12-19T05:27:12.215Z,88.90
2022-12-19T05:29:38.784Z,89.10
2022-12-19T05:32:05.540Z,89.20
2022-12-19T05:34:33.227Z,89.10
2022-12-19T05:37:00.126Z,89.30
2022-12-19T05:39:26.984Z,89.40
2022-12-19T05:41:54.131Z,89.20
2022-12-19T05:44:20.874Z,89.30
2022-12-19T05:46:47.516Z,89.40
2022-12-19T05:49:14.143Z,89.30
2022-12-19T05:51:41.436Z,89.50
2022-12-19T05:54:08.007Z,89.70
2022-12-19T05:56:34.640Z,89.40
2022-12-19T05:59:01.243Z,89.50
2022-12-19T06:01:28.298Z,89.60
2022-12-19T06:03:55.435Z,89.80
2022-12-19T06:06:26.518Z,89.60
2022-12-19T06:08:54.866Z,89.50
2022-12-19T06:11:22.145Z,89.80
2022-12-19T06:13:49.002Z,89.80
2022-12-19T06:16:18.032Z,89.90
2022-12-19T06:18:46.060Z,90.10
2022-12-19T06:21:15.688Z,90.40
2022-12-19T06:23:43.193Z,90.20
2022-12-19T06:26:17.149Z,90.20
2022-12-19T06:28:46.433Z,90.20
2022-12-19T06:31:13.611Z,90.20
2022-12-19T06:33:40.671Z,90.20
2022-12-19T06:36:14.278Z,90.10
2022-12-19T06:38:40.902Z,90.10
2022-12-19T06:41:27.895Z,90.10
2022-12-19T06:43:58.087Z,90.10
2022-12-19T06:46:24.765Z,90.20
2022-12-19T06:48:52.699Z,90.40
2022-12-19T06:51:20.022Z,90.10
2022-12-19T06:53:46.638Z,90.10
2022-12-19T06:56:15.738Z,90.10
2022-12-19T06:58:42.531Z,90.20
2022-12-19T07:01:20.704Z,90.20
2022-12-19T07:03:49.010Z,90.20
2022-12-19T07:06:15.859Z,90.20
2022-12-19T07:08:42.598Z,90.20
2022-12-19T07:11:09.247Z,90.10
2022-12-19T07:13:35.840Z,90.20
2022-12-19T07:16:05.227Z,90.30
2022-12-19T07:18:35.863Z,90.30
2022-12-19T07:21:03.359Z,90.20
2022-12-19T07:23:30.184Z,90.20
2022-12-19T07:25:57.435Z,90.30
2022-12-19T07:28:24.310Z,90.20
2022-12-19T07:30:50.920Z,90.10
2022-12-19T07:33:21.369Z,90.10
2022-12-19T07:35:48.625Z,90.20
2022-12-19T07:38:15.354Z,90.10
2022-12-19T07:40:41.917Z,90.10
2022-12-19T07:43:08.549Z,90.10
2022-12-19T07:45:38.067Z,90.10
2022-12-19T07:48:06.108Z,90.00
2022-12-19T07:50:33.186Z,90.00
2022-12-19T07:52:59.890Z,90.00
2022-12-19T07:55:27.162Z,90.00
2022-12-19T07:57:55.176Z,90.00
2022-12-19T08:00:22.100Z,90.00
2022-12-19T08:02:48.830Z,90.10
2022-12-19T08:05:15.652Z,90.00
2022-12-19T08:07:42.293Z,90.00
2022-12-19T08:10:11.291Z,90.00
2022-12-19T08:12:38.193Z,89.90
2022-12-19T08:15:05.813Z,90.00
2022-12-19T08:17:34.453Z,89.80
2022-12-19T08:20:01.148Z,90.00
2022-12-19T08:22:29.880Z,90.00
2022-12-19T08:24:57.464Z,90.00
2022-12-19T08:27:24.088Z,90.00
2022-12-19T08:29:51.052Z,90.00
2022-12-19T08:32:21.153Z,90.00
2022-12-19T08:34:48.789Z,89.90
2022-12-19T08:37:15.374Z,89.90
2022-12-19T08:39:42.008Z,90.00
2022-12-19T08:42:08.655Z,89.90
2022-12-19T08:44:35.321Z,89.80
2022-12-19T08:47:02.594Z,89.80
2022-12-19T08:49:29.303Z,89.90
2022-12-19T08:51:56.016Z,89.80
2022-12-19T08:54:22.931Z,89.90
2022-12-19T08:56:49.511Z,89.90
2022-12-19T08:59:25.002Z,89.90
2022-12-19T09:01:59.102Z,89.70
2022-12-19T09:06:02.141Z,89.70
2022-12-19T09:07:15.305Z,89.80
2022-12-19T09:09:43.108Z,89.70
2022-12-19T09:12:09.792Z,89.60
2022-12-19T09:14:36.801Z,89.60
2022-12-19T09:17:04.552Z,89.50
2022-12-19T09:19:31.537Z,89.60
2022-12-19T09:21:58.197Z,89.50
2022-12-19T09:24:24.863Z,89.50
2022-12-19T09:26:51.540Z,89.30
2022-12-19T09:29:20.720Z,89.40
2022-12-19T09:31:56.360Z,89.40
2022-12-19T09:34:37.102Z,89.50
2022-12-19T09:37:06.590Z,89.40
2022-12-19T09:39:34.412Z,89.40
2022-12-19T09:42:11.812Z,89.40
2022-12-19T09:44:53.525Z,89.30
2022-12-19T09:47:28.198Z,89.30
2022-12-19T09:49:54.900Z,89.30
2022-12-19T09:52:35.029Z,89.20
2022-12-19T09:55:17.307Z,89.20
2022-12-19T09:57:49.983Z,89.30
2022-12-19T10:00:20.167Z,89.10
2022-12-19T10:02:52.671Z,89.10
2022-12-19T10:06:59.842Z,89.20
2022-12-19T10:08:54.985Z,89.30
2022-12-19T10:12:38.272Z,89.20
2022-12-19T10:14:53.805Z,89.40
2022-12-19T10:17:33.401Z,89.50
2022-12-19T10:20:29.586Z,89.50
2022-12-19T10:23:39.898Z,89.50
2022-12-19T10:26:20.846Z,89.60
2022-12-19T10:29:14.766Z,89.60
2022-12-19T10:31:59.336Z,89.70
2022-12-19T10:34:43.585Z,89.70
2022-12-19T10:37:32.746Z,89.60
2022-12-19T10:40:10.343Z,89.40
2022-12-19T10:43:03.060Z,89.30
2022-12-19T10:45:50.099Z,89.30
2022-12-19T10:48:22.572Z,89.10
2022-12-19T10:50:57.565Z,89.00
2022-12-19T10:53:29.420Z,89.00
2022-12-19T10:56:03.671Z,88.90
2022-12-19T10:58:36.538Z,88.70
2022-12-19T11:01:29.629Z,88.70
2022-12-19T11:04:33.254Z,88.70
2022-12-19T11:07:03.060Z,88.70
2022-12-19T11:09:35.787Z,88.70
2022-12-19T11:15:24.814Z,88.60
2022-12-19T11:19:39.694Z,88.60
2022-12-19T11:25:37.416Z,88.50
2022-12-19T11:29:54.648Z,88.40
2022-12-19T11:29:54.950Z,88.30
2022-12-19T11:30:36.678Z,88.40
2022-12-19T11:33:19.035Z,88.20
2022-12-19T11:35:51.713Z,88.20
2022-12-19T11:38:55.534Z,88.20
2022-12-19T11:41:45.487Z,88.40
2022-12-19T11:44:38.852Z,88.40
2022-12-19T11:47:48.279Z,88.50
2022-12-19T11:50:22.830Z,88.40
2022-12-19T11:53:04.481Z,88.40
2022-12-19T11:56:01.079Z,88.30
2022-12-19T11:58:29.792Z,88.40
2022-12-19T12:01:23.010Z,88.40
2022-12-19T12:04:08.664Z,88.40
2022-12-19T12:06:46.190Z,88.30
2022-12-19T12:12:21.610Z,88.50
2022-12-19T12:19:21.819Z,88.40
2022-12-19T12:31:23.447Z,88.20
2022-12-19T12:31:26.957Z,88.20
2022-12-19T12:31:31.630Z,88.30
2022-12-19T12:31:45.376Z,88.10
2022-12-19T12:31:52.923Z,87.90
2022-12-19T12:32:04.347Z,88.10
2022-12-19T12:35:50.922Z,87.90
2022-12-19T12:39:39.983Z,87.60
2022-12-19T12:42:17.097Z,87.70
2022-12-19T12:44:46.430Z,87.50
2022-12-19T12:47:21.565Z,87.50
2022-12-19T12:49:58.709Z,87.40
2022-12-19T12:53:00.372Z,87.40
2022-12-19T12:55:34.184Z,87.00
2022-12-19T12:58:00.836Z,86.90
2022-12-19T13:00:34.689Z,86.80
2022-12-19T13:03:12.515Z,86.60
2022-12-19T13:06:20.832Z,86.50
2022-12-19T13:08:49.110Z,86.00
2022-12-19T13:11:55.819Z,85.90
2022-12-19T13:14:34.383Z,85.80
2022-12-19T13:17:11.909Z,85.60
2022-12-19T13:19:52.416Z,85.40
2022-12-19T13:22:31.763Z,86.20
2022-12-19T13:25:00.312Z,85.20
2022-12-19T13:27:33.874Z,85.00
2022-12-19T13:30:00.509Z,84.90
2022-12-19T13:32:41.160Z,84.70
2022-12-19T13:36:26.318Z,84.50
2022-12-19T13:39:56.784Z,84.40
2022-12-19T13:41:48.661Z,84.20
2022-12-19T13:44:21.174Z,84.00
2022-12-19T13:46:48.381Z,83.60
2022-12-19T13:49:17.930Z,83.80
2022-12-19T13:51:47.353Z,83.70
2022-12-19T13:54:21.168Z,83.70
2022-12-19T13:56:47.806Z,83.60
2022-12-19T13:59:14.834Z,83.60
2022-12-19T14:01:42.036Z,83.50
2022-12-19T14:04:29.188Z,83.40
2022-12-19T14:07:37.292Z,83.30
2022-12-19T14:11:32.287Z,83.10
2022-12-19T14:13:29.444Z,82.90
2022-12-19T14:16:04.098Z,82.80
2022-12-19T14:18:42.688Z,82.70
2022-12-19T14:22:05.118Z,82.70
2022-12-19T14:24:17.399Z,82.50
2022-12-19T14:28:18.860Z,82.50
2022-12-19T14:30:27.237Z,82.50
2022-12-19T14:33:50.007Z,82.40
2022-12-19T14:36:10.853Z,82.40
2022-12-19T14:39:27.356Z,82.30
2022-12-19T14:41:47.097Z,82.30
2022-12-19T14:52:34.730Z,82.00
2022-12-19T14:54:01.420Z,82.00
2022-12-19T14:54:13.005Z,81.90
2022-12-19T14:54:21.708Z,81.80
2022-12-19T14:56:04.723Z,81.50
2022-12-19T14:58:54.408Z,81.50
2022-12-19T15:01:23.990Z,81.50
2022-12-19T15:04:52.947Z,81.20
2022-12-19T15:07:06.729Z,81.20
2022-12-19T15:11:03.348Z,81.10
2022-12-19T15:14:54.587Z,80.90
2022-12-19T15:15:58.919Z,80.90
2022-12-19T15:18:37.995Z,81.00
2022-12-19T15:21:08.266Z,80.80
2022-12-19T15:23:35.552Z,80.80
2022-12-19T15:26:06.877Z,80.60
2022-12-19T15:28:49.999Z,80.70
2022-12-19T15:31:35.352Z,80.70
2022-12-19T15:34:38.030Z,80.50
2022-12-19T15:37:10.250Z,80.50
2022-12-19T15:39:37.352Z,80.30
2022-12-19T15:42:04.817Z,80.40
2022-12-19T15:44:37.603Z,80.40
2022-12-19T15:47:07.240Z,80.40
2022-12-19T15:49:35.065Z,80.30
2022-12-19T15:52:02.685Z,80.40
2022-12-19T15:57:46.497Z,80.30
2022-12-19T16:00:25.700Z,80.40
2022-12-19T16:03:22.483Z,80.40
2022-12-19T16:05:41.299Z,80.60
2022-12-19T16:08:12.781Z,80.60
2022-12-19T16:10:40.888Z,80.70
2022-12-19T16:13:19.933Z,80.60
2022-12-19T16:15:46.992Z,80.60
2022-12-19T16:18:14.477Z,80.70
2022-12-19T16:20:42.463Z,80.60
2022-12-19T16:23:10.986Z,80.60
2022-12-19T16:25:42.125Z,80.50
2022-12-19T16:28:38.413Z,80.50
2022-12-19T16:31:14.987Z,80.50
2022-12-19T16:33:41.961Z,80.50
2022-12-19T16:36:09.532Z,80.40
2022-12-19T16:38:36.732Z,80.40
2022-12-19T16:41:03.911Z,80.40
2022-12-19T16:43:35.045Z,80.40
2022-12-19T16:46:05.747Z,80.40
2022-12-19T16:48:35.436Z,80.40
2022-12-19T16:51:02.813Z,80.40
2022-12-19T16:53:29.742Z,81.20
2022-12-19T16:55:57.148Z,80.30
2022-12-19T16:58:26.478Z,80.30
2022-12-19T17:00:55.190Z,80.10
2022-12-19T17:03:31.109Z,80.10
2022-12-19T17:05:57.701Z,80.00
2022-12-19T17:08:24.617Z,79.90
2022-12-19T17:10:53.104Z,79.90
2022-12-19T17:13:21.008Z,79.90
2022-12-19T17:15:56.088Z,79.90
2022-12-19T17:18:35.785Z,79.80
2022-12-19T17:21:02.823Z,79.80
2022-12-19T17:23:32.626Z,79.70
2022-12-19T17:26:00.822Z,79.70
2022-12-19T17:28:28.856Z,79.60
2022-12-19T17:30:59.223Z,79.40
2022-12-19T17:33:43.838Z,79.30
2022-12-19T17:36:12.946Z,79.30
2022-12-19T17:38:39.543Z,79.30
2022-12-19T17:41:06.362Z,79.30
2022-12-19T17:43:33.004Z,79.20
2022-12-19T17:45:59.818Z,79.20
2022-12-19T17:48:32.633Z,79.20
2022-12-19T17:51:00.050Z,79.20
2022-12-19T17:53:26.964Z,79.10
2022-12-19T17:55:53.598Z,79.00
2022-12-19T17:58:21.602Z,79.10
2022-12-19T18:00:49.721Z,79.00
2022-12-19T18:03:24.011Z,79.00
2022-12-19T18:05:53.257Z,78.90
2022-12-19T18:08:27.394Z,79.00
2022-12-19T18:10:56.608Z,79.00
2022-12-19T18:13:24.555Z,78.80
2022-12-19T18:15:52.939Z,78.90
2022-12-19T18:18:26.715Z,78.80
2022-12-19T18:20:54.003Z,78.80
2022-12-19T18:23:23.007Z,78.90
2022-12-19T18:25:51.746Z,78.80
2022-12-19T18:28:20.125Z,78.90
2022-12-19T18:30:47.387Z,79.20
2022-12-19T18:33:18.145Z,79.10
2022-12-19T18:35:49.851Z,79.10
2022-12-19T18:38:24.574Z,79.10
2022-12-19T18:40:52.078Z,79.10
2022-12-19T18:43:19.347Z,79.10
2022-12-19T18:45:48.455Z,79.10
2022-12-19T18:48:32.784Z,79.10
2022-12-19T18:51:00.555Z,79.10
2022-12-19T18:53:35.118Z,79.20
2022-12-19T18:56:03.930Z,79.10
2022-12-19T18:58:30.668Z,79.10
2022-12-19T19:00:59.690Z,79.10
2022-12-19T19:03:33.503Z,79.20
2022-12-19T19:06:00.836Z,79.20
2022-12-19T19:08:30.443Z,79.20
2022-12-19T19:10:57.358Z,79.10
2022-12-19T19:13:25.548Z,79.10
2022-12-19T19:15:59.355Z,79.00
2022-12-19T19:18:30.779Z,79.00
2022-12-19T19:21:01.283Z,78.70
2022-12-19T19:23:33.533Z,78.70
2022-12-19T19:26:00.279Z,78.60
2022-12-19T19:28:27.157Z,78.50
2022-12-19T19:30:54.543Z,78.40
2022-12-19T19:33:29.941Z,78.40
2022-12-19T19:36:00.490Z,78.50
2022-12-19T19:38:30.433Z,78.40
2022-12-19T19:40:58.658Z,78.30
2022-12-19T19:43:26.868Z,78.40
2022-12-19T19:45:53.471Z,78.30
2022-12-19T19:48:20.109Z,78.30
2022-12-19T19:50:48.060Z,78.20
2022-12-19T19:53:14.693Z,78.10
2022-12-19T19:55:41.278Z,78.00
2022-12-19T19:58:07.907Z,78.00
2022-12-19T20:00:34.610Z,78.00
2022-12-19T20:03:06.267Z,78.00
2022-12-19T20:05:35.898Z,78.10
2022-12-19T20:08:02.513Z,78.10
2022-12-19T20:10:29.104Z,78.00
2022-12-19T20:12:55.734Z,78.00
2022-12-19T20:15:22.408Z,78.00
2022-12-19T20:17:51.389Z,78.00
2022-12-19T20:20:18.133Z,78.10
2022-12-19T20:22:44.948Z,78.00
2022-12-19T20:25:11.585Z,78.10
2022-12-19T20:27:38.161Z,78.00
2022-12-19T20:30:05.370Z,78.10
2022-12-19T20:32:32.103Z,78.10
2022-12-19T20:34:58.817Z,78.10
2022-12-19T20:37:25.566Z,78.10
2022-12-19T20:39:52.799Z,78.10
2022-12-19T20:42:19.464Z,78.20
2022-12-19T20:44:46.114Z,78.20
2022-12-19T20:47:13.238Z,78.20
2022-12-19T20:49:39.866Z,78.20
2022-12-19T20:52:06.573Z,78.20
2022-12-19T20:54:33.159Z,79.00
2022-12-19T20:56:59.735Z,78.20
2022-12-19T20:59:26.413Z,78.30
2022-12-19T21:01:55.180Z,78.40
2022-12-19T21:04:22.201Z,78.40
2022-12-19T21:06:49.026Z,78.50
2022-12-19T21:09:15.621Z,78.50
2022-12-19T21:11:42.295Z,78.60
2022-12-19T21:14:11.009Z,78.60
2022-12-19T21:16:38.594Z,78.60
2022-12-19T21:19:05.370Z,78.70
2022-12-19T21:21:32.138Z,78.70
2022-12-19T21:24:00.644Z,78.70
2022-12-19T21:26:27.277Z,78.70
2022-12-19T21:28:54.777Z,78.70
2022-12-19T21:31:24.981Z,78.70
2022-12-19T21:33:55.217Z,78.90
2022-12-19T21:36:24.324Z,78.80
2022-12-19T21:38:55.133Z,78.80
2022-12-19T21:41:22.438Z,78.80
2022-12-19T21:43:53.348Z,78.80
2022-12-19T21:46:22.858Z,78.80
2022-12-19T21:48:51.535Z,78.70
2022-12-19T21:51:20.471Z,78.70
2022-12-19T21:53:47.313Z,78.70
2022-12-19T21:56:22.801Z,78.70
2022-12-19T21:58:57.933Z,78.60
2022-12-19T22:01:25.550Z,78.50
2022-12-19T22:03:52.566Z,78.50
2022-12-19T22:06:27.722Z,78.40
2022-12-19T22:08:55.829Z,78.30
2022-12-19T22:11:22.743Z,78.30
2022-12-19T22:13:50.069Z,78.30
2022-12-19T22:16:17.121Z,78.30
2022-12-19T22:18:44.445Z,78.30
2022-12-19T22:21:13.527Z,78.30
2022-12-19T22:23:41.004Z,78.30
2022-12-19T22:26:11.172Z,78.20
2022-12-19T22:28:39.814Z,78.10
2022-12-19T22:31:42.147Z,78.30
2022-12-19T22:34:17.179Z,78.20
2022-12-19T22:36:44.739Z,78.10
2022-12-19T22:39:14.090Z,78.10
2022-12-19T22:41:41.610Z,78.00
2022-12-19T22:44:09.391Z,78.00
2022-12-19T22:46:37.405Z,77.90
2022-12-19T22:49:07.196Z,77.90
2022-12-19T22:51:35.015Z,77.80
2022-12-19T22:54:02.105Z,77.80
2022-12-19T22:56:31.162Z,77.70
2022-12-19T22:59:00.834Z,77.70
2022-12-19T23:01:36.940Z,77.80
2022-12-19T23:04:05.435Z,77.70
2022-12-19T23:06:34.968Z,77.60
2022-12-19T23:09:01.723Z,77.60
2022-12-19T23:11:31.957Z,77.60
2022-12-19T23:14:00.795Z,77.60
2022-12-19T23:16:27.709Z,77.50
2022-12-19T23:18:54.590Z,77.50
2022-12-19T23:21:23.435Z,77.40
2022-12-19T23:23:53.132Z,77.40
2022-12-19T23:26:22.714Z,77.40
2022-12-19T23:28:58.303Z,77.30
2022-12-19T23:31:25.591Z,77.40
2022-12-19T23:33:52.462Z,77.30
2022-12-19T23:36:38.272Z,77.30
2022-12-19T23:39:06.526Z,77.10
2022-12-19T23:41:33.422Z,77.20
2022-12-19T23:43:59.990Z,77.10
2022-12-19T23:46:27.353Z,77.90
2022-12-19T23:48:54.271Z,77.00
2022-12-19T23:51:26.892Z,77.00
2022-12-19T23:53:55.179Z,77.00
2022-12-19T23:56:30.666Z,77.00
2022-12-19T23:58:57.932Z,76.90
